createdAt,value
2023-04-28T00:05:06.319Z,72.78
2023-04-28T00:07:36.205Z,72.46
2023-04-28T00:10:05.437Z,72.75
2023-04-28T00:12:32.775Z,72.74
2023-04-28T00:17:39.848Z,72.86
2023-04-28T00:20:06.896Z,73.21
2023-04-28T00:22:41.112Z,74.15
2023-04-28T00:25:09.247Z,73.08
2023-04-28T00:27:36.899Z,74.30
2023-04-28T00:30:03.401Z,73.32
2023-04-28T00:32:31.378Z,73.36
2023-04-28T00:34:57.904Z,72.59
2023-04-28T00:37:25.688Z,74.20
2023-04-28T00:39:56.888Z,74.89
2023-04-28T00:42:25.008Z,74.40
2023-04-28T00:44:53.765Z,74.67
2023-04-28T00:47:24.528Z,74.51
2023-04-28T00:49:52.759Z,75.58
2023-04-28T00:52:21.727Z,74.74
2023-04-28T00:54:48.515Z,75.06
2023-04-28T00:57:16.666Z,76.53
2023-04-28T00:59:43.126Z,76.09
2023-04-28T01:02:09.992Z,75.36
2023-04-28T01:04:44.096Z,75.48
2023-04-28T01:07:12.293Z,75.52
2023-04-28T01:09:38.757Z,75.80
2023-04-28T01:12:05.835Z,76.73
2023-04-28T01:14:34.738Z,77.44
2023-04-28T01:17:01.360Z,77.77
2023-04-28T01:19:29.722Z,78.37
2023-04-28T01:21:59.833Z,79.12
2023-04-28T01:27:07.371Z,78.94
2023-04-28T01:29:36.697Z,78.34
2023-04-28T01:32:08.861Z,79.08
2023-04-28T01:34:36.834Z,79.08
2023-04-28T01:37:05.260Z,78.80
2023-04-28T01:42:14.524Z,80.04
2023-04-28T01:44:41.712Z,79.36
2023-04-28T01:47:19.532Z,78.73
2023-04-28T01:49:50.765Z,78.21
2023-04-28T01:52:20.729Z,78.94
2023-04-28T01:54:47.524Z,79.47
2023-04-28T01:57:17.558Z,78.23
2023-04-28T01:59:46.131Z,79.09
2023-04-28T02:02:14.498Z,79.74
2023-04-28T02:04:42.938Z,77.96
2023-04-28T02:07:11.393Z,78.94
2023-04-28T02:09:41.641Z,79.39
2023-04-28T02:12:09.373Z,79.36
2023-04-28T02:14:35.849Z,80.41
2023-04-28T02:17:05.463Z,79.17
2023-04-28T02:19:32.604Z,80.00
2023-04-28T02:22:00.543Z,79.85
2023-04-28T02:24:27.606Z,80.08
2023-04-28T02:26:54.845Z,80.09
2023-04-28T02:29:22.609Z,78.68
2023-04-28T02:31:50.266Z,78.80
2023-04-28T02:34:17.164Z,78.77
2023-04-28T02:36:44.884Z,78.56
2023-04-28T02:39:15.945Z,78.69
2023-04-28T02:41:44.065Z,78.40
2023-04-28T02:44:17.514Z,79.00
2023-04-28T02:46:46.759Z,79.17
2023-04-28T02:49:14.844Z,78.54
2023-04-28T02:51:42.334Z,79.58
2023-04-28T02:54:10.680Z,79.28
2023-04-28T02:56:41.337Z,79.17
2023-04-28T02:59:08.041Z,79.77
2023-04-28T03:01:37.324Z,78.92
2023-04-28T03:04:06.126Z,79.58
2023-04-28T03:06:33.342Z,79.33
2023-04-28T03:09:00.120Z,79.09
2023-04-28T03:11:29.562Z,80.70
2023-04-28T03:13:56.107Z,80.69
2023-04-28T03:16:22.852Z,81.71
2023-04-28T03:18:50.452Z,81.80
2023-04-28T03:21:17.343Z,80.78
2023-04-28T03:23:46.683Z,81.18
2023-04-28T03:26:16.674Z,81.17
2023-04-28T03:28:43.530Z,81.19
2023-04-28T03:31:10.069Z,81.36
2023-04-28T03:33:36.854Z,81.54
2023-04-28T03:36:05.884Z,81.20
2023-04-28T03:38:32.385Z,81.80
2023-04-28T03:41:03.737Z,82.41
2023-04-28T03:43:30.345Z,82.82
2023-04-28T03:45:59.109Z,81.55
2023-04-28T03:48:27.291Z,81.76
2023-04-28T03:50:58.558Z,81.75
2023-04-28T03:53:26.645Z,82.07
2023-04-28T03:56:01.811Z,80.79
2023-04-28T03:58:29.904Z,80.52
2023-04-28T04:00:57.738Z,81.21
2023-04-28T04:03:26.531Z,81.74
2023-04-28T04:05:56.030Z,81.86
2023-04-28T04:08:23.592Z,81.21
2023-04-28T04:10:53.882Z,80.56
2023-04-28T04:13:21.141Z,80.62
2023-04-28T04:15:50.896Z,81.26
2023-04-28T04:18:17.738Z,80.01
2023-04-28T04:20:50.155Z,79.91
2023-04-28T04:23:20.033Z,78.93
2023-04-28T04:25:56.104Z,79.85
2023-04-28T04:28:30.593Z,81.72
2023-04-28T04:31:01.148Z,80.32
2023-04-28T04:33:28.193Z,80.05
2023-04-28T04:35:54.970Z,81.29
2023-04-28T04:38:22.041Z,81.47
2023-04-28T04:40:49.559Z,81.15
2023-04-28T04:43:16.359Z,81.50
2023-04-28T04:45:44.678Z,81.70
2023-04-28T04:48:11.455Z,81.15
2023-04-28T04:50:38.967Z,80.63
2023-04-28T04:53:08.465Z,80.71
2023-04-28T04:55:36.432Z,81.32
2023-04-28T04:58:03.672Z,81.33
2023-04-28T05:00:30.415Z,81.80
2023-04-28T05:02:58.781Z,81.57
2023-04-28T05:05:31.905Z,81.97
2023-04-28T05:07:58.514Z,82.11
2023-04-28T05:10:27.470Z,79.37
2023-04-28T05:12:54.430Z,80.35
2023-04-28T05:15:23.437Z,80.62
2023-04-28T05:17:50.992Z,81.28
2023-04-28T05:20:18.343Z,80.50
2023-04-28T05:22:46.657Z,79.06
2023-04-28T05:25:17.699Z,79.39
2023-04-28T05:27:46.363Z,80.77
2023-04-28T05:30:15.758Z,81.17
2023-04-28T05:32:42.605Z,82.09
2023-04-28T05:35:10.247Z,81.36
2023-04-28T05:37:38.436Z,82.29
2023-04-28T05:40:08.674Z,80.88
2023-04-28T05:42:35.022Z,80.52
2023-04-28T05:45:01.567Z,79.63
2023-04-28T05:47:31.494Z,79.64
2023-04-28T05:50:00.545Z,77.85
2023-04-28T05:52:29.391Z,78.56
2023-04-28T05:54:56.459Z,77.63
2023-04-28T05:57:26.762Z,78.13
2023-04-28T05:59:53.551Z,76.68
2023-04-28T06:02:22.676Z,76.73
2023-04-28T06:05:54.475Z,76.90
2023-04-28T06:08:21.151Z,76.72
2023-04-28T06:10:48.794Z,77.02
2023-04-28T06:13:15.614Z,76.56
2023-04-28T06:15:44.895Z,76.42
2023-04-28T06:18:13.558Z,76.33
2023-04-28T06:20:41.827Z,75.85
2023-04-28T06:23:10.915Z,75.93
2023-04-28T06:25:37.586Z,75.62
2023-04-28T06:28:05.184Z,75.75
2023-04-28T06:30:34.388Z,76.58
2023-04-28T06:33:01.988Z,75.85
2023-04-28T06:35:28.579Z,76.18
2023-04-28T06:38:00.231Z,76.06
2023-04-28T06:40:28.034Z,76.70
2023-04-28T06:42:56.529Z,76.55
2023-04-28T06:45:25.722Z,75.89
2023-04-28T06:47:59.672Z,77.19
2023-04-28T06:50:26.382Z,77.44
2023-04-28T06:52:54.332Z,77.82
2023-04-28T06:55:24.129Z,77.31
2023-04-28T06:57:52.134Z,77.59
2023-04-28T07:00:19.744Z,77.29
2023-04-28T07:03:32.900Z,79.85
2023-04-28T07:06:01.196Z,79.64
2023-04-28T07:08:31.844Z,80.52
2023-04-28T07:11:00.262Z,78.96
2023-04-28T07:13:30.185Z,79.91
2023-04-28T07:15:57.341Z,79.29
2023-04-28T07:18:24.689Z,79.54
2023-04-28T07:20:54.268Z,78.88
2023-04-28T07:23:21.753Z,78.82
2023-04-28T07:25:55.235Z,78.24
2023-04-28T07:28:22.825Z,77.80
2023-04-28T07:30:49.867Z,78.86
2023-04-28T07:33:16.595Z,79.06
2023-04-28T07:35:51.294Z,79.05
2023-04-28T07:38:21.454Z,79.10
2023-04-28T07:40:48.367Z,78.38
2023-04-28T07:43:15.727Z,78.41
2023-04-28T07:45:49.662Z,79.93
2023-04-28T07:48:17.297Z,79.58
2023-04-28T07:50:45.132Z,80.57
2023-04-28T07:53:14.027Z,81.00
2023-04-28T07:55:43.371Z,80.40
2023-04-28T07:58:10.888Z,80.98
2023-04-28T08:00:44.578Z,79.39
2023-04-28T08:03:14.835Z,79.20
2023-04-28T08:05:42.296Z,79.63
2023-04-28T08:08:14.281Z,79.77
2023-04-28T08:10:42.166Z,79.90
2023-04-28T08:13:08.790Z,82.12
2023-04-28T08:19:21.128Z,80.97
2023-04-28T08:21:52.156Z,81.53
2023-04-28T08:24:20.297Z,81.36
2023-04-28T08:26:50.844Z,84.26
2023-04-28T08:29:18.353Z,82.28
2023-04-28T08:31:44.867Z,81.96
2023-04-28T08:34:13.105Z,81.80
2023-04-28T08:36:43.513Z,83.03
2023-04-28T08:39:15.616Z,82.84
2023-04-28T08:41:44.895Z,82.09
2023-04-28T08:44:13.007Z,83.11
2023-04-28T08:46:49.943Z,83.72
2023-04-28T08:49:19.334Z,85.31
2023-04-28T08:52:13.849Z,86.90
2023-04-28T08:54:43.057Z,85.22
2023-04-28T08:57:13.401Z,84.41
2023-04-28T08:59:45.558Z,85.47
2023-04-28T09:02:20.475Z,83.41
2023-04-28T09:04:55.366Z,85.15
2023-04-28T09:07:23.548Z,84.65
2023-04-28T09:09:56.079Z,84.47
2023-04-28T09:12:25.156Z,83.69
2023-04-28T09:14:51.709Z,83.18
2023-04-28T09:17:20.663Z,82.58
2023-04-28T09:19:49.917Z,81.26
2023-04-28T09:22:26.046Z,81.18
2023-04-28T09:24:54.759Z,80.73
2023-04-28T09:27:28.495Z,80.90
2023-04-28T09:29:56.518Z,80.85
2023-04-28T09:32:29.102Z,80.98
2023-04-28T09:35:06.354Z,81.54
2023-04-28T09:37:39.090Z,82.10
2023-04-28T09:40:12.286Z,82.13
2023-04-28T09:42:47.964Z,83.50
2023-04-28T09:45:16.440Z,83.32
2023-04-28T09:47:51.348Z,85.92
2023-04-28T09:50:18.515Z,85.64
2023-04-28T09:52:49.477Z,88.57
2023-04-28T09:55:21.576Z,87.58
2023-04-28T09:57:50.045Z,89.59
2023-04-28T10:00:18.821Z,94.24
2023-04-28T10:02:46.063Z,93.04
2023-04-28T10:05:21.299Z,94.57
2023-04-28T10:07:49.529Z,93.73
2023-04-28T10:10:24.508Z,98.23
2023-04-28T10:12:52.218Z,98.17
2023-04-28T10:15:18.971Z,98.50
2023-04-28T10:17:48.202Z,98.23
2023-04-28T10:24:09.204Z,100.00
2023-04-28T10:26:59.703Z,100.00
2023-04-28T10:29:35.188Z,100.00
2023-04-28T10:32:21.863Z,100.00
2023-04-28T10:34:50.186Z,100.00
2023-04-28T10:37:20.720Z,100.00
2023-04-28T10:40:26.525Z,100.00
2023-04-28T10:42:57.189Z,100.00
2023-04-28T10:46:00.953Z,100.00
2023-04-28T10:48:37.186Z,100.00
2023-04-28T10:51:03.834Z,100.00
2023-04-28T10:53:50.600Z,100.00
2023-04-28T10:56:27.503Z,100.00
2023-04-28T10:59:01.762Z,100.00
2023-04-28T11:01:30.997Z,100.00
2023-04-28T11:04:09.002Z,100.00
2023-04-28T11:06:44.925Z,100.00
2023-04-28T11:09:14.994Z,100.00
2023-04-28T11:12:02.402Z,100.00
2023-04-28T11:14:35.069Z,100.00
2023-04-28T11:17:18.802Z,100.00
2023-04-28T11:19:48.959Z,100.00
2023-04-28T11:22:19.404Z,100.00
2023-04-28T11:25:06.056Z,100.00
2023-04-28T11:27:33.556Z,100.00
2023-04-28T11:30:02.131Z,100.00
2023-04-28T11:32:35.582Z,100.00
2023-04-28T11:35:27.052Z,100.00
2023-04-28T11:38:12.915Z,100.00
2023-04-28T11:40:41.853Z,100.00
2023-04-28T11:43:46.885Z,100.00
2023-04-28T11:46:18.629Z,100.00
2023-04-28T11:48:46.817Z,100.00
2023-04-28T11:51:33.456Z,100.00
2023-04-28T11:54:04.294Z,100.00
2023-04-28T11:56:40.788Z,100.00
2023-04-28T11:59:12.848Z,100.00
2023-04-28T12:01:49.567Z,100.00
2023-04-28T12:04:36.778Z,100.00
2023-04-28T12:07:07.364Z,100.00
2023-04-28T12:09:36.901Z,100.00
2023-04-28T12:12:11.767Z,100.00
2023-04-28T12:14:54.937Z,100.00
2023-04-28T12:17:44.463Z,100.00
2023-04-28T12:20:38.180Z,100.00
2023-04-28T12:23:16.313Z,100.00
2023-04-28T12:25:47.842Z,100.00
2023-04-28T12:28:15.291Z,100.00
2023-04-28T12:30:42.645Z,100.00
2023-04-28T12:33:26.531Z,100.00
2023-04-28T12:36:00.489Z,100.00
2023-04-28T12:38:28.670Z,100.00
2023-04-28T12:41:01.735Z,100.00
2023-04-28T12:43:30.438Z,100.00
2023-04-28T12:46:19.467Z,100.00
2023-04-28T12:48:46.218Z,100.00
2023-04-28T12:51:19.804Z,100.00
2023-04-28T12:53:52.196Z,100.00
2023-04-28T12:56:18.701Z,100.00
2023-04-28T12:58:47.593Z,98.91
2023-04-28T13:01:17.020Z,100.00
2023-04-28T13:03:45.466Z,100.00
2023-04-28T13:06:16.256Z,100.00
2023-04-28T13:08:44.804Z,99.14
2023-04-28T13:11:21.821Z,100.00
2023-04-28T13:13:49.282Z,97.81
2023-04-28T13:16:15.825Z,97.16
2023-04-28T13:18:42.595Z,94.60
2023-04-28T13:21:09.730Z,96.46
2023-04-28T13:23:38.869Z,97.02
2023-04-28T13:26:07.850Z,99.46
2023-04-28T13:28:35.048Z,100.00
2023-04-28T13:31:01.521Z,100.00
2023-04-28T13:36:12.818Z,100.00
2023-04-28T13:38:40.709Z,99.25
2023-04-28T13:41:09.666Z,96.35
2023-04-28T13:43:38.272Z,97.48
2023-04-28T13:46:08.307Z,96.53
2023-04-28T13:48:36.797Z,94.97
2023-04-28T13:51:03.989Z,96.30
2023-04-28T13:53:32.093Z,98.11
2023-04-28T13:55:59.029Z,99.77
2023-04-28T13:58:27.711Z,100.00
2023-04-28T14:00:56.984Z,100.00
2023-04-28T14:03:24.421Z,100.00
2023-04-28T14:05:55.374Z,100.00
2023-04-28T14:08:22.960Z,100.00
2023-04-28T14:10:50.004Z,100.00
2023-04-28T14:13:16.467Z,100.00
2023-04-28T14:15:51.195Z,100.00
2023-04-28T14:18:22.543Z,100.00
2023-04-28T14:20:49.647Z,100.00
2023-04-28T14:23:16.671Z,99.29
2023-04-28T14:25:46.553Z,100.00
2023-04-28T14:28:13.013Z,100.00
2023-04-28T14:30:39.529Z,100.00
2023-04-28T14:33:06.815Z,100.00
2023-04-28T14:35:34.599Z,100.00
2023-04-28T14:38:01.279Z,100.00
2023-04-28T14:40:27.783Z,100.00
2023-04-28T14:42:54.771Z,100.00
2023-04-28T14:45:22.031Z,100.00
2023-04-28T14:47:49.197Z,100.00
2023-04-28T14:50:15.947Z,100.00
2023-04-28T14:52:44.098Z,100.00
2023-04-28T14:55:10.905Z,100.00
2023-04-28T14:57:37.969Z,100.00
2023-04-28T15:00:06.518Z,100.00
2023-04-28T15:02:35.065Z,100.00
2023-04-28T15:05:01.666Z,100.00
2023-04-28T15:07:31.344Z,100.00
2023-04-28T15:10:04.255Z,100.00
2023-04-28T15:12:31.879Z,100.00
2023-04-28T15:14:58.853Z,100.00
2023-04-28T15:17:26.517Z,100.00
2023-04-28T15:19:53.147Z,100.00
2023-04-28T15:22:22.439Z,100.00
2023-04-28T15:24:52.713Z,100.00
2023-04-28T15:27:21.320Z,100.00
2023-04-28T15:32:31.564Z,100.00
2023-04-28T15:35:00.658Z,100.00
2023-04-28T15:37:44.833Z,100.00
2023-04-28T15:40:14.889Z,100.00
2023-04-28T15:42:53.138Z,100.00
2023-04-28T15:45:21.906Z,100.00
2023-04-28T15:47:55.151Z,100.00
2023-04-28T15:50:26.587Z,100.00
2023-04-28T15:52:55.601Z,100.00
2023-04-28T15:55:25.145Z,100.00
2023-04-28T15:57:54.299Z,100.00
2023-04-28T16:00:20.834Z,100.00
2023-04-28T16:02:47.490Z,100.00
2023-04-28T16:05:15.255Z,100.00
2023-04-28T16:07:41.748Z,100.00
2023-04-28T16:10:12.719Z,100.00
2023-04-28T16:12:40.705Z,100.00
2023-04-28T16:15:08.653Z,100.00
2023-04-28T16:17:36.017Z,100.00
2023-04-28T16:20:05.315Z,100.00
2023-04-28T16:22:33.861Z,100.00
2023-04-28T16:25:06.498Z,100.00
2023-04-28T16:27:33.281Z,100.00
2023-04-28T16:30:00.171Z,100.00
2023-04-28T16:32:26.851Z,100.00
2023-04-28T16:34:53.414Z,100.00
2023-04-28T16:37:19.912Z,100.00
2023-04-28T16:39:48.304Z,100.00
2023-04-28T16:42:15.707Z,100.00
2023-04-28T16:44:42.404Z,100.00
2023-04-28T16:47:13.766Z,100.00
2023-04-28T16:49:40.244Z,100.00
2023-04-28T16:52:08.878Z,100.00
2023-04-28T16:54:35.587Z,100.00
2023-04-28T16:57:04.053Z,100.00
2023-04-28T16:59:31.034Z,100.00
2023-04-28T17:02:01.527Z,100.00
2023-04-28T17:04:28.183Z,100.00
2023-04-28T17:06:55.081Z,100.00
2023-04-28T17:09:21.730Z,100.00
2023-04-28T17:11:48.781Z,100.00
2023-04-28T17:14:15.439Z,100.00
2023-04-28T17:16:43.673Z,100.00
2023-04-28T17:19:11.072Z,100.00
2023-04-28T17:21:37.638Z,100.00
2023-04-28T17:24:04.309Z,100.00
2023-04-28T17:26:31.008Z,100.00
2023-04-28T17:28:58.284Z,100.00
2023-04-28T17:31:26.043Z,100.00
2023-04-28T17:33:53.011Z,100.00
2023-04-28T17:36:19.812Z,100.00
2023-04-28T17:38:46.442Z,100.00
2023-04-28T17:41:13.333Z,100.00
2023-04-28T17:43:39.890Z,100.00
2023-04-28T17:46:06.726Z,100.00
2023-04-28T17:48:34.254Z,100.00
2023-04-28T17:51:01.021Z,100.00
2023-04-28T17:53:27.489Z,100.00
2023-04-28T17:55:53.977Z,100.00
2023-04-28T17:58:20.709Z,100.00
2023-04-28T18:00:47.193Z,100.00
2023-04-28T18:03:13.779Z,100.00
2023-04-28T18:05:40.335Z,100.00
2023-04-28T18:08:06.880Z,100.00
2023-04-28T18:10:33.706Z,100.00
2023-04-28T18:13:00.388Z,100.00
2023-04-28T18:15:27.252Z,100.00
2023-04-28T18:17:53.781Z,100.00
2023-04-28T18:20:20.274Z,100.00
2023-04-28T18:22:47.092Z,100.00
2023-04-28T18:25:16.706Z,100.00
2023-04-28T18:27:43.366Z,100.00
2023-04-28T18:30:10.171Z,100.00
2023-04-28T18:32:36.809Z,100.00
2023-04-28T18:35:03.399Z,100.00
2023-04-28T18:37:30.043Z,100.00
2023-04-28T18:39:57.300Z,100.00
2023-04-28T18:42:24.035Z,100.00
2023-04-28T18:44:58.135Z,100.00
2023-04-28T18:47:25.475Z,100.00
2023-04-28T18:49:52.267Z,100.00
2023-04-28T18:52:18.781Z,100.00
2023-04-28T18:54:49.260Z,100.00
2023-04-28T18:57:16.811Z,100.00
2023-04-28T18:59:43.267Z,100.00
2023-04-28T19:02:09.802Z,100.00
2023-04-28T19:04:39.209Z,100.00
2023-04-28T19:07:05.844Z,100.00
2023-04-28T19:09:32.316Z,100.00
2023-04-28T19:11:58.769Z,100.00
2023-04-28T19:14:25.419Z,100.00
2023-04-28T19:16:52.117Z,100.00
2023-04-28T19:19:19.561Z,100.00
2023-04-28T19:21:46.071Z,100.00
2023-04-28T19:24:12.913Z,100.00
2023-04-28T19:26:39.529Z,100.00
2023-04-28T19:29:06.048Z,100.00
2023-04-28T19:31:32.661Z,100.00
2023-04-28T19:33:59.161Z,100.00
2023-04-28T19:36:25.720Z,100.00
2023-04-28T19:38:52.958Z,100.00
2023-04-28T19:41:20.830Z,100.00
2023-04-28T19:43:47.515Z,100.00
2023-04-28T19:46:15.106Z,100.00
2023-04-28T19:48:41.670Z,100.00
2023-04-28T19:51:08.295Z,100.00
2023-04-28T19:53:38.833Z,100.00
2023-04-28T19:56:05.662Z,100.00
2023-04-28T19:58:33.391Z,100.00
2023-04-28T20:00:59.864Z,100.00
2023-04-28T20:03:26.621Z,100.00
2023-04-28T20:05:53.356Z,100.00
2023-04-28T20:08:20.415Z,100.00
2023-04-28T20:10:46.986Z,100.00
2023-04-28T20:13:15.019Z,100.00
2023-04-28T20:15:42.246Z,100.00
2023-04-28T20:18:09.066Z,100.00
2023-04-28T20:20:35.595Z,100.00
2023-04-28T20:23:02.065Z,100.00
2023-04-28T20:25:28.905Z,100.00
2023-04-28T20:27:55.405Z,100.00
2023-04-28T20:30:21.908Z,100.00
2023-04-28T20:32:49.369Z,100.00
2023-04-28T20:35:15.904Z,100.00
2023-04-28T20:37:42.400Z,100.00
2023-04-28T20:40:10.408Z,100.00
2023-04-28T20:42:36.871Z,100.00
2023-04-28T20:45:04.426Z,100.00
2023-04-28T20:47:30.932Z,100.00
2023-04-28T20:49:57.444Z,100.00
2023-04-28T20:52:23.952Z,100.00
2023-04-28T20:54:52.066Z,100.00
2023-04-28T20:57:18.556Z,100.00
2023-04-28T20:59:45.040Z,100.00
2023-04-28T21:02:11.955Z,100.00
2023-04-28T21:04:38.465Z,100.00
2023-04-28T21:07:05.038Z,100.00
2023-04-28T21:09:31.522Z,100.00
2023-04-28T21:11:58.000Z,100.00
2023-04-28T21:14:24.489Z,100.00
2023-04-28T21:16:51.052Z,100.00
2023-04-28T21:19:18.463Z,100.00
2023-04-28T21:21:45.426Z,100.00
2023-04-28T21:24:12.525Z,100.00
2023-04-28T21:26:39.064Z,100.00
2023-04-28T21:29:05.581Z,100.00
2023-04-28T21:31:32.373Z,100.00
2023-04-28T21:33:59.149Z,100.00
2023-04-28T21:36:25.629Z,100.00
2023-04-28T21:38:52.256Z,100.00
2023-04-28T21:41:30.921Z,100.00
2023-04-28T21:43:57.573Z,100.00
2023-04-28T21:46:24.106Z,100.00
2023-04-28T21:48:50.716Z,100.00
2023-04-28T21:51:17.345Z,100.00
2023-04-28T21:53:43.799Z,100.00
2023-04-28T21:56:10.268Z,100.00
2023-04-28T21:58:37.042Z,100.00
2023-04-28T22:01:03.728Z,100.00
2023-04-28T22:03:30.295Z,100.00
2023-04-28T22:05:57.182Z,100.00
2023-04-28T22:08:23.905Z,100.00
2023-04-28T22:10:50.373Z,100.00
2023-04-28T22:13:16.834Z,100.00
2023-04-28T22:15:43.436Z,100.00
2023-04-28T22:18:10.109Z,100.00
2023-04-28T22:20:36.690Z,100.00
2023-04-28T22:23:03.486Z,100.00
2023-04-28T22:25:30.020Z,100.00
2023-04-28T22:27:56.603Z,100.00
2023-04-28T22:30:25.815Z,100.00
2023-04-28T22:32:52.796Z,100.00
2023-04-28T22:35:19.656Z,100.00
2023-04-28T22:37:46.144Z,100.00
2023-04-28T22:40:13.016Z,100.00
2023-04-28T22:42:40.556Z,100.00
2023-04-28T22:45:07.564Z,100.00
2023-04-28T22:47:34.546Z,100.00
2023-04-28T22:50:03.509Z,100.00
2023-04-28T22:52:30.010Z,100.00
2023-04-28T22:54:56.501Z,100.00
2023-04-28T22:57:22.959Z,100.00
2023-04-28T22:59:49.692Z,100.00
2023-04-28T23:02:16.314Z,100.00
2023-04-28T23:04:43.016Z,100.00
2023-04-28T23:07:10.126Z,100.00
2023-04-28T23:09:37.283Z,100.00
2023-04-28T23:12:04.109Z,100.00
2023-04-28T23:14:33.796Z,100.00
2023-04-28T23:17:00.281Z,100.00
2023-04-28T23:19:26.794Z,100.00
2023-04-28T23:21:54.412Z,100.00
2023-04-28T23:24:21.569Z,100.00
2023-04-28T23:26:48.038Z,100.00
2023-04-28T23:29:14.752Z,100.00
2023-04-28T23:31:41.294Z,100.00
2023-04-28T23:34:07.799Z,100.00
2023-04-28T23:36:34.589Z,100.00
2023-04-28T23:39:01.570Z,100.00
2023-04-28T23:41:28.479Z,100.00
2023-04-28T23:43:55.034Z,100.00
2023-04-28T23:46:21.960Z,100.00
2023-04-28T23:48:48.443Z,100.00
2023-04-28T23:51:15.220Z,100.00
2023-04-28T23:53:42.091Z,100.00
2023-04-28T23:56:08.559Z,100.00
2023-04-28T23:58:35.110Z,100.00
